createdAt,value
2022-12-25T00:01:20.469Z,7.10
2022-12-25T00:03:47.607Z,7.02
2022-12-25T00:06:14.674Z,6.35
2022-12-25T00:08:41.680Z,6.33
2022-12-25T00:11:13.513Z,6.25
2022-12-25T00:13:41.391Z,6.17
2022-12-25T00:16:13.225Z,6.28
2022-12-25T00:18:40.000Z,6.43
2022-12-25T00:21:07.382Z,6.27
2022-12-25T00:23:35.404Z,6.21
2022-12-25T00:26:14.387Z,5.99
2022-12-25T00:28:41.422Z,6.07
2022-12-25T00:31:14.934Z,6.08
2022-12-25T00:33:44.676Z,6.00
2022-12-25T00:36:13.414Z,5.95
2022-12-25T00:38:41.328Z,5.79
2022-12-25T00:41:39.188Z,6.13
2022-12-25T00:44:07.113Z,6.29
2022-12-25T00:46:33.953Z,6.51
2022-12-25T00:49:00.984Z,6.52
2022-12-25T00:51:28.049Z,6.62
2022-12-25T00:53:54.723Z,6.62
2022-12-25T00:56:21.549Z,6.64
2022-12-25T00:58:48.605Z,6.57
2022-12-25T01:01:15.441Z,6.63
2022-12-25T01:03:42.312Z,6.65
2022-12-25T01:06:12.751Z,6.50
2022-12-25T01:09:04.514Z,6.47
2022-12-25T01:11:31.692Z,6.39
2022-12-25T01:13:58.465Z,6.21
2022-12-25T01:16:25.688Z,6.07
2022-12-25T01:18:52.445Z,5.94
2022-12-25T01:21:22.618Z,5.89
2022-12-25T01:23:52.597Z,5.91
2022-12-25T01:26:22.802Z,5.81
2022-12-25T01:28:50.575Z,5.64
2022-12-25T01:31:21.267Z,5.28
2022-12-25T01:33:48.527Z,5.24
2022-12-25T01:36:24.062Z,5.31
2022-12-25T01:38:52.756Z,5.02
2022-12-25T01:41:22.446Z,4.91
2022-12-25T01:44:36.931Z,4.97
2022-12-25T01:47:05.987Z,5.25
2022-12-25T01:49:37.570Z,5.51
2022-12-25T01:52:25.102Z,5.63
2022-12-25T01:55:03.976Z,5.48
2022-12-25T01:57:34.605Z,5.60
2022-12-25T02:00:02.525Z,5.78
2022-12-25T02:02:32.176Z,5.90
2022-12-25T02:05:12.117Z,5.93
2022-12-25T02:07:41.292Z,5.92
2022-12-25T02:10:11.905Z,5.84
2022-12-25T02:12:39.946Z,5.81
2022-12-25T02:15:13.662Z,5.54
2022-12-25T02:18:26.483Z,5.54
2022-12-25T02:21:05.162Z,5.58
2022-12-25T02:24:21.556Z,5.50
2022-12-25T02:27:30.014Z,5.42
2022-12-25T02:30:07.050Z,5.47
2022-12-25T02:32:39.646Z,5.20
2022-12-25T02:35:18.961Z,5.15
2022-12-25T02:38:04.804Z,5.25
2022-12-25T02:40:40.843Z,5.19
2022-12-25T02:43:37.150Z,5.36
2022-12-25T02:46:30.042Z,5.16
2022-12-25T02:49:21.743Z,5.22
2022-12-25T02:52:18.277Z,5.16
2022-12-25T02:55:09.971Z,5.21
2022-12-25T02:58:01.553Z,5.07
2022-12-25T03:00:48.239Z,5.31
2022-12-25T03:03:35.075Z,5.27
2022-12-25T03:06:22.319Z,5.24
2022-12-25T03:09:16.923Z,5.25
2022-12-25T03:11:47.528Z,5.20
2022-12-25T03:14:33.206Z,5.23
2022-12-25T03:17:00.944Z,5.18
2022-12-25T03:19:52.795Z,5.19
2022-12-25T03:22:46.811Z,5.02
2022-12-25T03:25:33.000Z,5.19
2022-12-25T03:28:01.311Z,5.28
2022-12-25T03:31:14.052Z,5.29
2022-12-25T03:34:23.802Z,5.30
2022-12-25T03:37:41.304Z,5.21
2022-12-25T03:40:35.800Z,5.10
2022-12-25T03:44:02.022Z,5.10
2022-12-25T03:46:54.454Z,5.08
2022-12-25T03:49:50.231Z,5.05
2022-12-25T03:52:37.954Z,4.91
2022-12-25T03:55:28.939Z,4.94
2022-12-25T03:58:14.308Z,5.00
2022-12-25T04:00:59.580Z,5.07
2022-12-25T04:03:44.948Z,4.99
2022-12-25T04:06:30.463Z,4.52
2022-12-25T04:09:15.988Z,4.67
2022-12-25T04:12:03.034Z,4.78
2022-12-25T04:14:48.582Z,4.96
2022-12-25T04:17:33.922Z,4.95
2022-12-25T04:20:19.117Z,4.97
2022-12-25T04:23:04.657Z,4.92
2022-12-25T04:25:50.230Z,4.75
2022-12-25T04:28:35.734Z,4.91
2022-12-25T04:31:21.020Z,4.91
2022-12-25T04:34:06.129Z,4.95
2022-12-25T04:36:32.923Z,4.98
2022-12-25T04:38:59.634Z,4.99
2022-12-25T04:41:26.437Z,4.91
2022-12-25T04:43:53.124Z,4.75
2022-12-25T04:46:19.889Z,4.87
2022-12-25T04:48:47.668Z,4.88
2022-12-25T04:51:17.128Z,4.93
2022-12-25T04:53:44.917Z,4.92
2022-12-25T04:56:12.786Z,4.91
2022-12-25T04:58:39.649Z,4.64
2022-12-25T05:01:06.684Z,4.66
2022-12-25T05:03:34.396Z,4.23
2022-12-25T05:06:02.257Z,4.36
2022-12-25T05:08:31.826Z,4.02
2022-12-25T05:10:58.720Z,4.44
2022-12-25T05:13:25.606Z,4.57
2022-12-25T05:15:52.575Z,4.53
2022-12-25T05:18:19.371Z,4.41
2022-12-25T05:20:55.912Z,4.47
2022-12-25T05:23:22.835Z,4.55
2022-12-25T05:25:49.553Z,4.48
2022-12-25T05:28:16.563Z,4.42
2022-12-25T05:30:43.465Z,4.37
2022-12-25T05:33:10.283Z,4.39
2022-12-25T05:35:38.421Z,4.38
2022-12-25T05:38:07.535Z,4.38
2022-12-25T05:40:35.062Z,4.37
2022-12-25T05:43:01.754Z,4.32
2022-12-25T05:45:28.477Z,4.33
2022-12-25T05:47:55.302Z,4.25
2022-12-25T05:50:22.021Z,3.92
2022-12-25T05:52:48.721Z,4.04
2022-12-25T05:55:15.600Z,4.10
2022-12-25T05:57:42.331Z,4.18
2022-12-25T06:00:09.974Z,4.32
2022-12-25T06:02:39.336Z,4.19
2022-12-25T06:05:06.783Z,4.06
2022-12-25T06:07:33.534Z,3.83
2022-12-25T06:10:00.398Z,3.69
2022-12-25T06:12:27.102Z,3.62
2022-12-25T06:14:53.761Z,3.45
2022-12-25T06:17:20.464Z,3.67
2022-12-25T06:19:47.180Z,3.76
2022-12-25T06:22:13.883Z,3.53
2022-12-25T06:24:41.020Z,3.91
2022-12-25T06:27:07.940Z,4.04
2022-12-25T06:29:34.655Z,4.07
2022-12-25T06:32:01.421Z,3.93
2022-12-25T06:34:28.199Z,3.98
2022-12-25T06:36:55.189Z,3.98
2022-12-25T06:39:21.982Z,4.00
2022-12-25T06:41:48.779Z,4.05
2022-12-25T06:44:15.499Z,4.11
2022-12-25T06:46:42.221Z,4.12
2022-12-25T06:49:10.237Z,4.09
2022-12-25T06:51:37.206Z,4.10
2022-12-25T06:54:04.483Z,3.95
2022-12-25T06:56:32.643Z,4.20
2022-12-25T06:59:06.915Z,4.20
2022-12-25T07:01:39.947Z,4.32
2022-12-25T07:04:12.595Z,4.36
2022-12-25T07:06:39.399Z,4.35
2022-12-25T07:09:06.043Z,4.39
2022-12-25T07:11:32.793Z,4.26
2022-12-25T07:13:59.480Z,4.13
2022-12-25T07:16:26.292Z,4.34
2022-12-25T07:18:53.007Z,4.26
2022-12-25T07:21:21.056Z,4.33
2022-12-25T07:23:50.090Z,4.42
2022-12-25T07:26:17.499Z,4.48
2022-12-25T07:28:44.503Z,4.45
2022-12-25T07:31:15.031Z,4.54
2022-12-25T07:33:42.242Z,4.51
2022-12-25T07:36:13.090Z,4.43
2022-12-25T07:38:42.081Z,4.48
2022-12-25T07:41:11.176Z,4.60
2022-12-25T07:43:37.932Z,4.74
2022-12-25T07:46:05.185Z,4.77
2022-12-25T07:48:32.227Z,4.73
2022-12-25T07:51:17.118Z,4.87
2022-12-25T07:53:43.845Z,4.94
2022-12-25T07:56:20.498Z,4.90
2022-12-25T07:58:48.615Z,4.95
2022-12-25T08:01:27.044Z,5.18
2022-12-25T08:03:55.534Z,4.53
2022-12-25T08:06:26.695Z,4.82
2022-12-25T08:08:53.395Z,4.98
2022-12-25T08:11:20.094Z,4.92
2022-12-25T08:13:46.961Z,5.00
2022-12-25T08:16:13.725Z,4.73
2022-12-25T08:18:40.714Z,5.08
2022-12-25T08:21:12.012Z,5.26
2022-12-25T08:23:42.555Z,5.31
2022-12-25T08:26:14.328Z,5.48
2022-12-25T08:28:41.241Z,5.06
2022-12-25T08:31:24.343Z,5.34
2022-12-25T08:33:54.772Z,5.18
2022-12-25T08:36:22.063Z,5.27
2022-12-25T08:38:49.328Z,5.36
2022-12-25T08:41:17.019Z,5.42
2022-12-25T08:43:44.136Z,5.89
2022-12-25T08:46:11.785Z,5.97
2022-12-25T08:48:41.553Z,5.33
2022-12-25T08:51:15.358Z,5.49
2022-12-25T08:53:47.177Z,5.71
2022-12-25T08:56:15.585Z,5.88
2022-12-25T08:58:43.100Z,6.25
2022-12-25T09:01:10.156Z,6.51
2022-12-25T09:03:37.166Z,6.65
2022-12-25T09:06:11.113Z,6.78
2022-12-25T09:08:44.213Z,6.76
2022-12-25T09:11:15.471Z,6.72
2022-12-25T09:13:42.327Z,6.95
2022-12-25T09:16:16.820Z,6.73
2022-12-25T09:18:43.640Z,6.92
2022-12-25T09:21:13.752Z,6.87
2022-12-25T09:23:40.601Z,7.12
2022-12-25T09:26:11.459Z,7.16
2022-12-25T09:28:38.174Z,7.07
2022-12-25T09:31:05.287Z,6.60
2022-12-25T09:33:32.210Z,6.96
2022-12-25T09:36:05.876Z,7.04
2022-12-25T09:38:34.195Z,7.39
2022-12-25T09:41:21.999Z,8.02
2022-12-25T09:44:32.567Z,8.04
2022-12-25T09:47:15.918Z,8.25
2022-12-25T09:50:23.226Z,8.23
2022-12-25T09:53:09.773Z,8.49
2022-12-25T09:55:46.111Z,8.35
2022-12-25T09:58:13.637Z,7.99
2022-12-25T10:00:54.629Z,8.32
2022-12-25T10:03:39.950Z,8.56
2022-12-25T10:06:16.647Z,8.36
2022-12-25T10:09:12.880Z,8.75
2022-12-25T10:12:30.276Z,8.58
2022-12-25T10:15:45.405Z,9.13
2022-12-25T10:18:27.333Z,8.85
2022-12-25T10:21:00.439Z,9.09
2022-12-25T10:23:40.718Z,9.41
2022-12-25T10:26:25.193Z,9.55
2022-12-25T10:29:13.806Z,9.36
2022-12-25T10:31:45.186Z,9.49
2022-12-25T10:34:14.395Z,9.11
2022-12-25T10:36:44.650Z,8.83
2022-12-25T10:39:21.528Z,9.05
2022-12-25T10:42:00.133Z,8.64
2022-12-25T10:44:26.932Z,8.81
2022-12-25T10:46:58.108Z,9.46
2022-12-25T10:49:32.499Z,9.27
2022-12-25T10:51:59.297Z,9.36
2022-12-25T10:54:30.256Z,9.54
2022-12-25T10:57:09.063Z,9.67
2022-12-25T10:59:44.404Z,9.42
2022-12-25T11:02:19.005Z,8.82
2022-12-25T11:04:46.352Z,8.67
2022-12-25T11:07:18.959Z,9.38
2022-12-25T11:10:04.737Z,9.10
2022-12-25T11:12:45.510Z,9.65
2022-12-25T11:15:45.155Z,9.51
2022-12-25T11:18:22.430Z,9.71
2022-12-25T11:20:55.091Z,9.72
2022-12-25T11:23:25.186Z,9.32
2022-12-25T11:25:59.820Z,9.17
2022-12-25T11:28:29.219Z,9.54
2022-12-25T11:31:07.575Z,9.36
2022-12-25T11:34:09.734Z,8.98
2022-12-25T11:36:45.890Z,9.18
2022-12-25T11:39:31.700Z,9.23
2022-12-25T11:42:49.383Z,8.56
2022-12-25T11:45:29.331Z,8.67
2022-12-25T11:48:09.413Z,8.69
2022-12-25T11:50:51.669Z,8.58
2022-12-25T11:53:52.986Z,8.95
2022-12-25T11:56:28.000Z,9.21
2022-12-25T11:59:01.476Z,9.43
2022-12-25T12:01:42.453Z,9.75
2022-12-25T12:04:31.787Z,9.49
2022-12-25T12:07:27.028Z,9.68
2022-12-25T12:10:19.047Z,9.28
2022-12-25T12:13:06.721Z,9.67
2022-12-25T12:15:47.439Z,9.66
2022-12-25T12:18:27.775Z,9.08
2022-12-25T12:20:59.877Z,9.19
2022-12-25T12:23:29.167Z,9.51
2022-12-25T12:25:56.771Z,9.20
2022-12-25T12:28:29.052Z,9.23
2022-12-25T12:31:04.346Z,9.34
2022-12-25T12:33:57.476Z,9.26
2022-12-25T12:36:35.681Z,9.19
2022-12-25T12:39:05.162Z,9.02
2022-12-25T12:42:01.484Z,8.58
2022-12-25T12:44:34.116Z,9.09
2022-12-25T12:47:00.861Z,9.21
2022-12-25T12:49:33.527Z,8.95
2022-12-25T12:52:38.344Z,9.37
2022-12-25T12:55:14.948Z,9.40
2022-12-25T12:57:42.750Z,9.43
2022-12-25T13:00:19.126Z,9.81
2022-12-25T13:03:09.673Z,9.56
2022-12-25T13:05:41.223Z,9.42
2022-12-25T13:08:53.297Z,9.16
2022-12-25T13:11:24.426Z,9.03
2022-12-25T13:13:54.602Z,9.40
2022-12-25T13:16:38.991Z,9.64
2022-12-25T13:19:23.496Z,9.60
2022-12-25T13:22:02.527Z,9.56
2022-12-25T13:24:37.006Z,9.59
2022-12-25T13:27:23.301Z,9.76
2022-12-25T13:29:50.194Z,9.69
2022-12-25T13:32:26.126Z,9.73
2022-12-25T13:34:54.098Z,9.86
2022-12-25T13:37:27.500Z,9.51
2022-12-25T13:40:01.169Z,9.54
2022-12-25T13:42:36.112Z,9.29
2022-12-25T13:45:15.788Z,8.78
2022-12-25T13:47:43.276Z,8.64
2022-12-25T13:50:32.853Z,8.22
2022-12-25T13:53:13.521Z,8.66
2022-12-25T13:55:44.148Z,8.28
2022-12-25T13:58:30.567Z,8.22
2022-12-25T14:01:00.824Z,7.56
2022-12-25T14:03:43.908Z,7.75
2022-12-25T14:06:26.174Z,8.21
2022-12-25T14:08:56.143Z,8.42
2022-12-25T14:11:26.963Z,8.40
2022-12-25T14:14:01.689Z,8.69
2022-12-25T14:16:35.129Z,8.22
2022-12-25T14:19:03.550Z,8.44
2022-12-25T14:21:49.365Z,8.39
2022-12-25T14:24:17.362Z,7.63
2022-12-25T14:26:44.305Z,7.77
2022-12-25T14:29:18.215Z,7.72
2022-12-25T14:31:47.281Z,8.14
2022-12-25T14:34:25.996Z,8.71
2022-12-25T14:36:53.561Z,8.54
2022-12-25T14:39:38.516Z,8.34
2022-12-25T14:42:26.124Z,8.37
2022-12-25T14:45:26.623Z,7.82
2022-12-25T14:48:04.104Z,7.83
2022-12-25T14:50:38.666Z,7.71
2022-12-25T14:53:19.459Z,7.93
2022-12-25T14:55:50.529Z,7.86
2022-12-25T14:58:28.265Z,8.45
2022-12-25T15:01:04.535Z,8.22
2022-12-25T15:03:36.494Z,8.45
2022-12-25T15:06:20.808Z,7.68
2022-12-25T15:08:59.760Z,7.75
2022-12-25T15:11:27.032Z,8.17
2022-12-25T15:13:53.792Z,8.03
2022-12-25T15:16:34.644Z,7.65
2022-12-25T15:19:02.489Z,7.68
2022-12-25T15:21:32.975Z,7.69
2022-12-25T15:24:00.390Z,7.94
2022-12-25T15:26:30.322Z,7.85
2022-12-25T15:28:58.265Z,7.79
2022-12-25T15:31:31.650Z,7.82
2022-12-25T15:34:01.937Z,8.20
2022-12-25T15:36:29.157Z,8.12
2022-12-25T15:38:56.514Z,8.25
2022-12-25T15:41:52.503Z,8.39
2022-12-25T15:44:19.759Z,8.58
2022-12-25T15:46:47.436Z,8.07
2022-12-25T15:49:16.399Z,8.16
2022-12-25T15:51:44.104Z,7.42
2022-12-25T15:54:11.433Z,7.72
2022-12-25T15:57:18.186Z,7.68
2022-12-25T15:59:45.071Z,7.32
2022-12-25T16:02:19.480Z,7.14
2022-12-25T16:04:46.827Z,7.26
2022-12-25T16:07:20.084Z,7.19
2022-12-25T16:09:46.995Z,6.89
2022-12-25T16:12:13.701Z,6.71
2022-12-25T16:14:40.444Z,6.58
2022-12-25T16:17:07.891Z,6.44
2022-12-25T16:19:34.686Z,6.57
2022-12-25T16:22:01.407Z,6.82
2022-12-25T16:24:28.140Z,7.15
2022-12-25T16:26:54.831Z,6.72
2022-12-25T16:29:21.585Z,6.67
2022-12-25T16:31:48.399Z,7.04
2022-12-25T16:34:15.105Z,6.72
2022-12-25T16:36:41.833Z,6.01
2022-12-25T16:39:08.589Z,6.12
2022-12-25T16:41:35.258Z,6.12
2022-12-25T16:44:10.052Z,6.78
2022-12-25T16:46:39.926Z,6.88
2022-12-25T16:49:06.747Z,7.53
2022-12-25T16:51:33.807Z,7.93
2022-12-25T16:54:00.543Z,7.49
2022-12-25T16:56:28.251Z,7.25
2022-12-25T16:58:57.470Z,7.63
2022-12-25T17:01:25.828Z,7.26
2022-12-25T17:03:53.114Z,7.06
2022-12-25T17:06:28.244Z,7.34
2022-12-25T17:08:59.464Z,7.73
2022-12-25T17:11:29.780Z,7.56
2022-12-25T17:14:02.406Z,7.35
2022-12-25T17:16:33.858Z,7.97
2022-12-25T17:19:15.906Z,7.69
2022-12-25T17:21:42.776Z,7.99
2022-12-25T17:24:10.403Z,8.48
2022-12-25T17:26:37.336Z,7.79
2022-12-25T17:29:04.144Z,7.59
2022-12-25T17:31:31.101Z,7.39
2022-12-25T17:33:59.766Z,7.19
2022-12-25T17:36:27.106Z,6.79
2022-12-25T17:38:53.799Z,7.38
2022-12-25T17:41:21.091Z,8.18
2022-12-25T17:43:48.598Z,8.05
2022-12-25T17:46:25.102Z,7.52
2022-12-25T17:48:54.351Z,7.64
2022-12-25T17:51:25.331Z,7.57
2022-12-25T17:54:00.117Z,7.87
2022-12-25T17:56:27.056Z,7.11
2022-12-25T17:58:57.793Z,6.72
2022-12-25T18:01:27.594Z,7.44
2022-12-25T18:03:55.016Z,7.98
2022-12-25T18:06:24.148Z,8.28
2022-12-25T18:08:51.015Z,8.05
2022-12-25T18:11:28.956Z,8.17
2022-12-25T18:13:58.193Z,8.48
2022-12-25T18:16:27.361Z,8.57
2022-12-25T18:18:54.230Z,8.18
2022-12-25T18:21:22.758Z,8.28
2022-12-25T18:23:50.157Z,7.85
2022-12-25T18:26:18.548Z,7.78
2022-12-25T18:28:45.548Z,7.88
2022-12-25T18:31:19.366Z,8.40
2022-12-25T18:33:46.738Z,8.36
2022-12-25T18:36:15.703Z,8.34
2022-12-25T18:38:42.757Z,7.95
2022-12-25T18:41:10.827Z,8.02
2022-12-25T18:43:52.987Z,8.14
2022-12-25T18:46:25.584Z,8.71
2022-12-25T18:48:56.390Z,8.37
2022-12-25T18:51:23.555Z,8.26
2022-12-25T18:53:51.146Z,8.67
2022-12-25T18:56:19.714Z,9.38
2022-12-25T18:58:47.410Z,9.26
2022-12-25T19:01:22.376Z,9.31
2022-12-25T19:03:51.301Z,8.60
2022-12-25T19:06:27.214Z,9.32
2022-12-25T19:08:55.670Z,9.66
2022-12-25T19:11:23.363Z,8.99
2022-12-25T19:13:50.276Z,9.35
2022-12-25T19:16:17.327Z,8.56
2022-12-25T19:18:45.740Z,8.38
2022-12-25T19:21:12.428Z,8.95
2022-12-25T19:23:40.530Z,8.30
2022-12-25T19:26:08.814Z,8.28
2022-12-25T19:28:37.183Z,7.40
2022-12-25T19:31:07.430Z,7.40
2022-12-25T19:33:36.237Z,7.21
2022-12-25T19:36:08.124Z,7.44
2022-12-25T19:38:34.996Z,7.29
2022-12-25T19:41:15.629Z,7.31
2022-12-25T19:43:45.542Z,7.18
2022-12-25T19:46:19.534Z,7.73
2022-12-25T19:48:46.939Z,8.08
2022-12-25T19:51:26.573Z,8.06
2022-12-25T19:53:56.109Z,8.30
2022-12-25T19:56:24.356Z,8.42
2022-12-25T19:58:51.133Z,8.45
2022-12-25T20:01:21.043Z,8.80
2022-12-25T20:03:49.262Z,8.97
2022-12-25T20:06:24.700Z,9.01
2022-12-25T20:08:58.028Z,8.80
2022-12-25T20:11:28.275Z,8.83
2022-12-25T20:13:55.671Z,9.24
2022-12-25T20:16:23.844Z,9.14
2022-12-25T20:18:51.266Z,9.44
2022-12-25T20:21:21.377Z,9.29
2022-12-25T20:23:51.835Z,9.60
2022-12-25T20:26:22.741Z,9.43
2022-12-25T20:28:49.525Z,9.60
2022-12-25T20:31:22.939Z,9.75
2022-12-25T20:33:53.849Z,9.71
2022-12-25T20:36:20.785Z,9.69
2022-12-25T20:38:47.523Z,9.68
2022-12-25T20:41:27.894Z,9.98
2022-12-25T20:43:56.230Z,9.87
2022-12-25T20:46:23.905Z,9.86
2022-12-25T20:48:51.787Z,9.56
2022-12-25T20:51:23.575Z,9.58
2022-12-25T20:53:51.064Z,9.05
2022-12-25T20:56:20.942Z,9.31
2022-12-25T20:58:47.740Z,9.02
2022-12-25T21:01:17.917Z,9.37
2022-12-25T21:03:45.235Z,9.39
2022-12-25T21:06:12.491Z,9.66
2022-12-25T21:08:40.995Z,9.60
2022-12-25T21:11:09.169Z,9.71
2022-12-25T21:13:40.530Z,9.83
2022-12-25T21:16:11.160Z,10.13
2022-12-25T21:18:38.051Z,10.30
2022-12-25T21:21:07.275Z,10.25
2022-12-25T21:23:36.732Z,10.73
2022-12-25T21:26:31.870Z,10.43
2022-12-25T21:29:02.178Z,10.26
2022-12-25T21:31:30.876Z,9.42
2022-12-25T21:33:59.822Z,9.93
2022-12-25T21:36:30.552Z,9.45
2022-12-25T21:39:14.579Z,9.66
2022-12-25T21:41:41.967Z,9.99
2022-12-25T21:44:10.892Z,9.03
2022-12-25T21:46:37.832Z,9.54
2022-12-25T21:49:04.656Z,8.86
2022-12-25T21:51:52.760Z,9.13
2022-12-25T21:54:23.027Z,8.77
2022-12-25T21:56:50.594Z,9.38
2022-12-25T21:59:22.379Z,9.40
2022-12-25T22:01:51.442Z,9.08
2022-12-25T22:04:21.756Z,9.39
2022-12-25T22:07:07.158Z,9.29
2022-12-25T22:09:34.252Z,9.05
2022-12-25T22:12:20.047Z,8.83
2022-12-25T22:15:02.438Z,9.56
2022-12-25T22:18:00.420Z,9.46
2022-12-25T22:20:34.529Z,9.36
2022-12-25T22:23:01.797Z,9.36
2022-12-25T22:25:28.943Z,8.94
2022-12-25T22:27:55.967Z,9.50
2022-12-25T22:30:29.023Z,9.26
2022-12-25T22:32:56.975Z,9.64
2022-12-25T22:35:24.516Z,10.01
2022-12-25T22:37:51.448Z,10.30
2022-12-25T22:40:20.258Z,10.14
2022-12-25T22:42:47.460Z,10.39
2022-12-25T22:45:14.566Z,9.84
2022-12-25T22:47:41.843Z,9.52
2022-12-25T22:50:10.903Z,9.32
2022-12-25T22:52:38.243Z,9.48
2022-12-25T22:55:07.678Z,9.74
2022-12-25T22:57:34.562Z,9.95
2022-12-25T23:00:01.701Z,9.22
2022-12-25T23:02:28.905Z,9.51
2022-12-25T23:04:55.749Z,9.40
2022-12-25T23:07:22.528Z,8.99
2022-12-25T23:09:49.322Z,9.08
2022-12-25T23:12:34.795Z,9.51
2022-12-25T23:15:01.579Z,9.40
2022-12-25T23:17:46.952Z,9.80
2022-12-25T23:20:33.242Z,10.09
2022-12-25T23:23:19.150Z,9.18
2022-12-25T23:26:04.888Z,8.93
2022-12-25T23:28:50.103Z,9.04
2022-12-25T23:31:17.223Z,8.93
2022-12-25T23:33:44.013Z,9.02
2022-12-25T23:36:10.783Z,8.34
2022-12-25T23:38:37.476Z,8.60
2022-12-25T23:41:04.321Z,8.01
2022-12-25T23:43:31.045Z,8.41
2022-12-25T23:45:57.859Z,8.15
2022-12-25T23:48:24.552Z,8.26
2022-12-25T23:50:51.676Z,8.22
2022-12-25T23:53:18.387Z,8.46
2022-12-25T23:55:50.073Z,8.73
2022-12-25T23:58:20.344Z,8.65
